Time;durP1;ratioP1;P1;durP2;ratioP2;P2;SDS_P1;SDS_P2;PMS_P1;PMS_P2;Temp;Humidity;BMP_temperature;BMP_pressure;BME280_temperature;BME280_humidity;BME280_pressure;Samples;Min_cycle;Max_cycle;Signal;HPM_P1;HPM_P2
2023/10/24 00:01:16;;;;;;;22.45;16.60;;;11.00;90.50;;;;;;6160498;23;20045;-93
2023/10/24 00:03:41;;;;;;;25.67;17.73;;;11.10;90.60;;;;;;6134218;23;20346;-93
2023/10/24 00:06:07;;;;;;;24.13;17.15;;;11.10;90.60;;;;;;6134355;23;20458;-93
2023/10/24 00:08:33;;;;;;;23.63;17.17;;;11.10;90.70;;;;;;6135076;23;20012;-94
2023/10/24 00:11:00;;;;;;;24.33;17.80;;;11.10;90.70;;;;;;6160373;23;20064;-94
2023/10/24 00:13:26;;;;;;;22.17;16.42;;;11.10;90.70;;;;;;6160056;23;20024;-93
2023/10/24 00:15:51;;;;;;;27.70;17.63;;;11.10;90.70;;;;;;6173668;23;20017;-92
2023/10/24 00:18:17;;;;;;;25.45;17.52;;;11.10;90.80;;;;;;6175810;23;20036;-92
2023/10/24 00:20:42;;;;;;;29.80;17.88;;;11.10;90.80;;;;;;6155309;23;20024;-92
2023/10/24 00:23:08;;;;;;;26.27;17.70;;;11.10;90.80;;;;;;6144667;23;20009;-92
2023/10/24 00:25:33;;;;;;;26.90;16.20;;;11.10;90.90;;;;;;6135981;23;20044;-93
2023/10/24 00:27:59;;;;;;;23.13;16.27;;;11.10;90.90;;;;;;6134906;23;20023;-90
2023/10/24 00:30:25;;;;;;;27.40;17.30;;;11.20;91.00;;;;;;6135199;23;20394;-91
2023/10/24 00:32:50;;;;;;;25.00;17.33;;;11.00;91.00;;;;;;6134123;23;20009;-89
2023/10/24 00:35:17;;;;;;;25.02;16.25;;;11.10;91.00;;;;;;6159483;23;20023;-90
2023/10/24 00:37:43;;;;;;;24.58;16.55;;;11.10;91.00;;;;;;6134515;23;20075;-91
2023/10/24 00:40:09;;;;;;;26.80;17.65;;;11.10;91.10;;;;;;6159273;23;20092;-92
2023/10/24 00:42:35;;;;;;;23.35;16.45;;;11.10;91.10;;;;;;6159014;23;20115;-92
2023/10/24 00:45:01;;;;;;;28.55;16.50;;;11.10;91.10;;;;;;6134586;23;20115;-92
2023/10/24 00:47:26;;;;;;;24.63;15.82;;;11.10;91.20;;;;;;6158873;23;20020;-91
2023/10/24 00:49:52;;;;;;;22.42;14.38;;;11.10;91.20;;;;;;6134439;23;20087;-91
2023/10/24 00:52:19;;;;;;;21.85;14.80;;;11.10;91.20;;;;;;6159120;23;20096;-91
2023/10/24 00:54:45;;;;;;;26.75;15.60;;;11.10;91.30;;;;;;6158791;23;20017;-92
2023/10/24 00:57:12;;;;;;;26.05;16.45;;;11.10;91.30;;;;;;6158631;23;20021;-92
2023/10/24 00:59:39;;;;;;;20.70;14.52;;;11.10;91.30;;;;;;6158242;23;20005;-93
2023/10/24 01:02:06;;;;;;;23.23;15.23;;;11.10;91.40;;;;;;6133979;23;20013;-92
2023/10/24 01:04:33;;;;;;;20.02;13.98;;;11.10;91.40;;;;;;6133716;23;20032;-92
2023/10/24 01:06:59;;;;;;;20.77;14.98;;;11.20;91.40;;;;;;6133672;23;20100;-91
2023/10/24 01:09:25;;;;;;;19.80;13.95;;;11.20;91.50;;;;;;6133799;23;20032;-90
2023/10/24 01:11:53;;;;;;;20.33;14.88;;;11.20;91.50;;;;;;6158331;23;20068;-92
2023/10/24 01:14:18;;;;;;;21.88;14.10;;;11.20;91.50;;;;;;6133693;23;20067;-92
2023/10/24 01:16:45;;;;;;;18.15;13.48;;;11.20;91.50;;;;;;6134116;23;20091;-91
2023/10/24 01:19:11;;;;;;;20.85;13.80;;;11.20;91.60;;;;;;6160109;23;20016;-91
2023/10/24 01:21:42;;;;;;;20.08;12.98;;;11.20;91.60;;;;;;6160105;23;20016;-92
2023/10/24 01:24:08;;;;;;;19.10;12.73;;;11.20;91.60;;;;;;6160400;23;20017;-91
2023/10/24 01:26:34;;;;;;;18.80;12.40;;;11.20;91.60;;;;;;6135212;23;20039;-91
2023/10/24 01:29:00;;;;;;;17.67;12.18;;;11.40;91.70;;;;;;6135167;23;20020;-91
2023/10/24 01:31:25;;;;;;;19.45;12.57;;;11.20;91.70;;;;;;6159721;23;20095;-92
2023/10/24 01:33:51;;;;;;;16.92;11.77;;;11.20;91.70;;;;;;6135321;23;20143;-92
2023/10/24 01:36:16;;;;;;;18.08;11.98;;;11.20;91.70;;;;;;6162131;23;20020;-92
2023/10/24 01:38:42;;;;;;;17.45;12.15;;;11.20;91.70;;;;;;6168134;23;20020;-90
2023/10/24 01:41:07;;;;;;;16.52;11.75;;;11.30;91.70;;;;;;6139161;23;20023;-91
2023/10/24 01:43:33;;;;;;;16.17;12.27;;;11.30;91.80;;;;;;6160063;23;20009;-91
2023/10/24 01:45:59;;;;;;;17.75;12.65;;;11.50;91.80;;;;;;6160483;23;20104;-90
2023/10/24 01:48:25;;;;;;;18.38;13.07;;;11.30;91.80;;;;;;6135457;23;20009;-91
2023/10/24 01:50:51;;;;;;;16.90;12.95;;;11.30;91.80;;;;;;6135789;23;20043;-90
2023/10/24 01:53:16;;;;;;;18.55;12.25;;;11.30;91.80;;;;;;6137805;23;20096;-91
2023/10/24 01:55:42;;;;;;;19.15;12.57;;;11.30;91.80;;;;;;6135708;23;20347;-92
2023/10/24 01:58:07;;;;;;;20.05;14.20;;;11.30;91.80;;;;;;6160329;23;20009;-91
2023/10/24 02:00:33;;;;;;;18.10;13.73;;;11.30;91.90;;;;;;6159825;23;20151;-88
2023/10/24 02:02:59;;;;;;;19.23;14.73;;;11.30;91.90;;;;;;6161117;23;20042;-91
2023/10/24 02:05:24;;;;;;;23.20;14.93;;;11.30;91.90;;;;;;6138496;23;20020;-90
2023/10/24 02:07:50;;;;;;;18.48;14.23;;;11.40;92.00;;;;;;6183576;23;20031;-92
2023/10/24 02:10:16;;;;;;;21.38;14.98;;;11.30;91.90;;;;;;6184234;23;20009;-91
2023/10/24 02:12:41;;;;;;;22.45;15.43;;;11.30;91.90;;;;;;6159178;23;20012;-91
2023/10/24 02:15:08;;;;;;;23.27;14.98;;;11.40;92.00;;;;;;6160834;23;20012;-91
2023/10/24 02:17:33;;;;;;;24.85;16.45;;;11.40;92.00;;;;;;6135623;23;20063;-90
2023/10/24 02:19:59;;;;;;;19.38;14.32;;;11.40;92.00;;;;;;6135594;23;20013;-92
2023/10/24 02:22:24;;;;;;;23.75;15.30;;;11.40;92.00;;;;;;6135384;23;20095;-91
2023/10/24 02:24:50;;;;;;;23.85;15.82;;;11.40;92.00;;;;;;6135144;23;20068;-91
2023/10/24 02:27:16;;;;;;;25.10;16.15;;;11.40;92.00;;;;;;6135130;23;20092;-93
2023/10/24 02:29:41;;;;;;;19.75;14.90;;;11.50;92.00;;;;;;6134972;23;20020;-92
2023/10/24 02:32:07;;;;;;;22.77;16.35;;;11.40;92.00;;;;;;6159714;23;20009;-91
2023/10/24 02:34:32;;;;;;;25.02;16.83;;;11.50;92.00;;;;;;6159627;23;20044;-92
2023/10/24 02:36:58;;;;;;;24.70;16.83;;;11.50;92.10;;;;;;6159163;23;20017;-92
2023/10/24 02:39:23;;;;;;;25.00;16.75;;;11.50;92.10;;;;;;6134757;23;20411;-90
2023/10/24 02:41:49;;;;;;;24.48;17.00;;;11.70;92.10;;;;;;6134640;23;20216;-91
2023/10/24 02:44:15;;;;;;;21.15;16.23;;;11.50;92.10;;;;;;6158780;23;20071;-91
2023/10/24 02:46:40;;;;;;;24.20;17.52;;;11.70;92.10;;;;;;6159183;23;20072;-91
2023/10/24 02:49:06;;;;;;;21.27;16.08;;;11.50;92.10;;;;;;6159418;23;20087;-92
2023/10/24 02:51:31;;;;;;;23.90;17.17;;;11.50;92.10;;;;;;6159250;23;20017;-91
2023/10/24 02:53:57;;;;;;;22.02;16.58;;;11.50;92.10;;;;;;6134430;23;20024;-91
2023/10/24 02:56:23;;;;;;;22.70;16.98;;;11.50;92.10;;;;;;6159419;23;20013;-92
2023/10/24 02:58:49;;;;;;;26.75;18.48;;;11.60;92.20;;;;;;6134231;23;20049;-91
2023/10/24 03:01:15;;;;;;;22.52;17.15;;;11.60;92.20;;;;;;6134627;23;20017;-92
2023/10/24 03:03:40;;;;;;;27.17;18.52;;;11.60;92.20;;;;;;6134429;23;20084;-90
2023/10/24 03:06:16;;;;;;;25.98;18.27;;;11.60;92.20;;;;;;6134508;23;20388;-90
2023/10/24 03:08:43;;;;;;;22.88;17.45;;;11.60;92.30;;;;;;6159015;23;20009;-91
2023/10/24 03:11:08;;;;;;;27.00;18.02;;;11.60;92.20;;;;;;6134273;23;20092;-92
2023/10/24 03:13:34;;;;;;;25.98;17.95;;;11.60;92.20;;;;;;6134201;23;20342;-92
2023/10/24 03:16:06;;;;;;;21.90;17.08;;;11.70;92.20;;;;;;6159054;23;20009;-91
2023/10/24 03:18:33;;;;;;;23.52;18.63;;;11.70;92.30;;;;;;6159073;23;20028;-91
2023/10/24 03:20:59;;;;;;;24.90;18.20;;;11.70;92.30;;;;;;6158273;23;20009;-90
2023/10/24 03:23:25;;;;;;;23.75;18.00;;;12.00;92.40;;;;;;6134328;23;20468;-91
2023/10/24 03:25:51;;;;;;;24.92;18.15;;;11.70;92.30;;;;;;6134647;23;20013;-92
2023/10/24 03:28:17;;;;;;;30.10;17.63;;;12.00;92.40;;;;;;6133962;23;20037;-91
2023/10/24 03:30:43;;;;;;;25.00;18.30;;;11.70;92.30;;;;;;6134562;23;20351;-90
2023/10/24 03:33:09;;;;;;;22.83;17.08;;;11.70;92.30;;;;;;6134728;23;20060;-91
2023/10/24 03:35:35;;;;;;;28.35;19.58;;;11.70;92.30;;;;;;6160517;23;20047;-91
2023/10/24 03:38:01;;;;;;;27.17;18.58;;;11.70;92.30;;;;;;6166610;23;20036;-89
2023/10/24 03:40:27;;;;;;;23.38;16.60;;;11.80;92.30;;;;;;6159427;23;20009;-91
2023/10/24 03:42:53;;;;;;;21.30;16.33;;;11.70;92.30;;;;;;6134290;23;20458;-91
2023/10/24 03:45:19;;;;;;;23.52;18.20;;;11.80;92.40;;;;;;6159109;23;20013;-91
2023/10/24 03:47:46;;;;;;;22.92;16.25;;;11.70;92.30;;;;;;6134162;23;20016;-91
2023/10/24 03:50:13;;;;;;;25.70;16.77;;;11.80;92.30;;;;;;6158823;23;20060;-91
2023/10/24 03:52:39;;;;;;;22.83;17.45;;;12.00;92.40;;;;;;6158580;23;20021;-91
2023/10/24 03:55:05;;;;;;;24.27;18.08;;;11.80;92.30;;;;;;6159109;23;20013;-92
2023/10/24 03:57:31;;;;;;;26.20;18.42;;;11.80;92.30;;;;;;6133565;23;20515;-92
2023/10/24 03:59:56;;;;;;;23.02;18.95;;;11.80;92.30;;;;;;6158787;23;20347;-90
2023/10/24 04:02:22;;;;;;;22.95;17.80;;;11.90;92.40;;;;;;6159134;23;20477;-92
2023/10/24 04:04:48;;;;;;;27.30;20.25;;;11.90;92.40;;;;;;6158848;23;20037;-91
2023/10/24 04:07:14;;;;;;;28.05;19.55;;;11.90;92.40;;;;;;6158924;23;20009;-92
2023/10/24 04:09:39;;;;;;;22.17;18.27;;;11.90;92.40;;;;;;6136496;23;20328;-92
2023/10/24 04:12:06;;;;;;;23.42;19.10;;;12.00;92.50;;;;;;6134837;23;20364;-91
2023/10/24 04:14:31;;;;;;;21.45;17.58;;;12.00;92.40;;;;;;6134626;23;20017;-90
2023/10/24 04:16:57;;;;;;;23.10;18.40;;;12.00;92.50;;;;;;6136928;23;20024;-91
2023/10/24 04:19:23;;;;;;;24.63;18.15;;;12.00;92.50;;;;;;6136286;23;20064;-91
2023/10/24 04:21:48;;;;;;;22.70;17.20;;;12.00;92.50;;;;;;6176529;23;20044;-90
2023/10/24 04:24:14;;;;;;;20.95;18.05;;;12.00;92.50;;;;;;6171388;23;20110;-89
2023/10/24 04:26:40;;;;;;;21.35;17.42;;;12.00;92.50;;;;;;6175056;23;20017;-91
2023/10/24 04:29:05;;;;;;;20.38;17.75;;;12.00;92.50;;;;;;6153955;23;20001;-91
2023/10/24 04:31:31;;;;;;;17.25;15.30;;;12.00;92.50;;;;;;6167457;23;20343;-91
2023/10/24 04:33:56;;;;;;;19.25;16.77;;;12.10;92.50;;;;;;6136470;23;20438;-91
2023/10/24 04:36:22;;;;;;;18.08;16.15;;;12.10;92.50;;;;;;6137276;23;20052;-91
2023/10/24 04:38:48;;;;;;;18.83;15.82;;;12.10;92.50;;;;;;6174499;23;20047;-91
2023/10/24 04:41:13;;;;;;;19.08;16.85;;;12.10;92.50;;;;;;6184169;23;20001;-91
2023/10/24 04:43:39;;;;;;;17.70;15.30;;;12.30;92.60;;;;;;6185885;23;20005;-91
2023/10/24 04:46:04;;;;;;;16.42;14.68;;;12.00;92.50;;;;;;6153091;23;20350;-91
2023/10/24 04:48:30;;;;;;;16.92;15.13;;;12.10;92.50;;;;;;6159674;23;20083;-91
2023/10/24 04:50:56;;;;;;;17.23;15.18;;;12.20;92.50;;;;;;6159116;23;20342;-88
2023/10/24 04:53:22;;;;;;;17.58;14.35;;;12.10;92.40;;;;;;6134591;23;20458;-91
2023/10/24 04:55:48;;;;;;;16.83;13.45;;;12.10;92.40;;;;;;6158550;23;20020;-90
2023/10/24 04:58:13;;;;;;;17.02;13.65;;;12.10;92.40;;;;;;6159010;23;20010;-90
2023/10/24 05:00:39;;;;;;;16.90;12.60;;;12.10;92.40;;;;;;6133128;23;20092;-89
2023/10/24 05:03:04;;;;;;;14.20;11.98;;;12.10;92.40;;;;;;6158315;23;20009;-90
2023/10/24 05:05:34;;;;;;;12.65;11.32;;;12.10;92.30;;;;;;6159485;23;20021;-89
2023/10/24 05:07:59;;;;;;;13.70;11.93;;;12.10;92.30;;;;;;6159428;23;20020;-90
2023/10/24 05:10:25;;;;;;;13.98;11.45;;;12.20;92.30;;;;;;6134719;23;20065;-89
2023/10/24 05:12:50;;;;;;;14.02;11.05;;;12.10;92.20;;;;;;6157894;23;20017;-88
2023/10/24 05:15:16;;;;;;;13.70;12.15;;;12.10;92.20;;;;;;6133466;23;20013;-88
2023/10/24 05:17:42;;;;;;;12.70;10.98;;;12.10;92.20;;;;;;6161862;23;20014;-88
2023/10/24 05:20:08;;;;;;;14.85;10.40;;;12.10;92.20;;;;;;6157607;23;20005;-89
2023/10/24 05:22:34;;;;;;;13.27;10.85;;;12.10;92.20;;;;;;6132983;23;20005;-89
2023/10/24 05:25:00;;;;;;;12.15;10.88;;;12.20;92.10;;;;;;6132838;23;20018;-89
2023/10/24 05:27:28;;;;;;;12.20;10.40;;;12.10;92.10;;;;;;6133218;23;20438;-90
2023/10/24 05:29:54;;;;;;;11.48;9.98;;;12.10;92.00;;;;;;6157988;23;20017;-89
2023/10/24 05:32:20;;;;;;;12.10;10.63;;;12.10;92.00;;;;;;6133171;23;20024;-90
2023/10/24 05:34:45;;;;;;;11.75;10.57;;;12.10;92.00;;;;;;6158120;23;20013;-89
2023/10/24 05:37:11;;;;;;;13.63;10.50;;;12.10;92.00;;;;;;6137981;23;20442;-90
2023/10/24 05:39:36;;;;;;;11.77;9.80;;;12.10;91.90;;;;;;6136920;23;20013;-90
2023/10/24 05:42:17;;;;;;;12.52;9.18;;;12.10;91.90;;;;;;6093522;23;20021;-89
2023/10/24 05:44:43;;;;;;;11.48;9.20;;;12.10;91.90;;;;;;6158225;23;20028;-89
2023/10/24 05:47:08;;;;;;;16.58;9.65;;;12.00;91.80;;;;;;6159079;23;20020;-89
2023/10/24 05:49:34;;;;;;;11.38;8.68;;;12.00;91.80;;;;;;6134386;23;20501;-89
2023/10/24 05:52:00;;;;;;;12.38;9.07;;;12.30;91.90;;;;;;6159088;23;20075;-89
2023/10/24 05:54:25;;;;;;;11.38;9.25;;;12.70;92.00;;;;;;6159936;23;20403;-87
2023/10/24 05:56:51;;;;;;;12.95;9.00;;;12.00;91.80;;;;;;6158014;23;20127;-88
2023/10/24 05:59:16;;;;;;;11.55;9.48;;;12.00;91.80;;;;;;6157625;23;20016;-89
2023/10/24 06:01:42;;;;;;;10.65;8.90;;;12.00;91.80;;;;;;6157314;23;20013;-89
2023/10/24 06:04:07;;;;;;;11.40;8.50;;;12.00;91.80;;;;;;6134472;23;20009;-90
2023/10/24 06:06:33;;;;;;;12.43;8.73;;;12.00;91.80;;;;;;6158578;23;20013;-91
2023/10/24 06:08:59;;;;;;;11.95;8.90;;;12.00;91.80;;;;;;6134899;23;20017;-91
2023/10/24 06:11:24;;;;;;;12.05;9.10;;;12.00;91.70;;;;;;6159428;23;20020;-92
2023/10/24 06:13:51;;;;;;;9.55;7.90;;;12.20;91.80;;;;;;6159572;23;20350;-91
2023/10/24 06:16:17;;;;;;;11.63;8.18;;;11.90;91.90;;;;;;6135601;23;20537;-92
2023/10/24 06:18:43;;;;;;;11.38;8.57;;;12.00;91.70;;;;;;6159139;23;20096;-89
2023/10/24 06:21:11;;;;;;;10.57;8.60;;;11.90;91.70;;;;;;6159054;23;20009;-90
2023/10/24 06:23:38;;;;;;;10.25;7.97;;;11.90;91.90;;;;;;6159767;23;20044;-91
2023/10/24 06:26:04;;;;;;;11.45;8.32;;;11.90;91.70;;;;;;6135286;23;20394;-89
2023/10/24 06:28:29;;;;;;;12.98;8.80;;;12.00;91.70;;;;;;6134633;23;20005;-91
2023/10/24 06:31:00;;;;;;;9.55;8.10;;;11.90;91.70;;;;;;6159946;23;20092;-90
2023/10/24 06:33:30;;;;;;;10.73;8.25;;;11.90;91.70;;;;;;6159698;23;20017;-90
2023/10/24 06:35:56;;;;;;;10.57;8.85;;;11.90;91.60;;;;;;6158483;23;20016;-90
2023/10/24 06:38:22;;;;;;;11.38;8.45;;;11.90;91.60;;;;;;6134767;23;20446;-90
2023/10/24 06:40:48;;;;;;;10.10;8.27;;;11.90;91.60;;;;;;6134752;23;20012;-90
2023/10/24 06:43:14;;;;;;;10.13;8.02;;;11.80;91.60;;;;;;6134554;23;20076;-91
2023/10/24 06:45:42;;;;;;;12.50;8.27;;;11.90;91.60;;;;;;6158951;23;20068;-90
2023/10/24 06:48:08;;;;;;;12.68;8.38;;;12.10;91.60;;;;;;6134492;23;20473;-90
2023/10/24 06:50:34;;;;;;;11.32;8.10;;;11.80;91.50;;;;;;6158853;23;20005;-90
2023/10/24 06:52:59;;;;;;;10.13;8.25;;;11.80;91.50;;;;;;6134807;23;20017;-91
2023/10/24 06:55:25;;;;;;;10.73;8.07;;;11.80;91.50;;;;;;6159122;23;20017;-90
2023/10/24 06:57:51;;;;;;;11.73;8.93;;;11.80;91.50;;;;;;6160476;23;20009;-91
2023/10/24 07:00:17;;;;;;;11.82;8.18;;;11.80;91.50;;;;;;6135689;23;20334;-90
2023/10/24 07:02:42;;;;;;;11.10;8.70;;;11.80;91.50;;;;;;6159059;23;20073;-90
2023/10/24 07:05:08;;;;;;;9.85;8.00;;;11.80;91.50;;;;;;6159616;23;20017;-90
2023/10/24 07:07:35;;;;;;;11.00;8.48;;;11.80;91.50;;;;;;6136552;23;20521;-90
2023/10/24 07:10:01;;;;;;;10.77;8.13;;;11.80;91.50;;;;;;6141842;23;20070;-90
2023/10/24 07:12:27;;;;;;;11.43;8.32;;;11.80;91.50;;;;;;6151523;23;20021;-90
2023/10/24 07:14:53;;;;;;;11.73;8.13;;;11.80;91.50;;;;;;6154063;23;20047;-90
2023/10/24 07:17:19;;;;;;;10.80;9.07;;;11.80;91.50;;;;;;6149206;23;20017;-90
2023/10/24 07:19:45;;;;;;;13.43;9.82;;;11.80;91.50;;;;;;6135034;23;20012;-90
2023/10/24 07:22:11;;;;;;;12.13;8.90;;;11.80;91.60;;;;;;6134915;23;20076;-90
2023/10/24 07:24:36;;;;;;;12.10;8.82;;;11.80;91.60;;;;;;6135100;23;20338;-91
2023/10/24 07:27:03;;;;;;;11.38;9.40;;;11.80;91.60;;;;;;6135303;23;20088;-90
2023/10/24 07:29:29;;;;;;;13.38;9.60;;;11.80;91.60;;;;;;6134941;23;20020;-90
2023/10/24 07:31:55;;;;;;;11.93;9.57;;;11.80;91.60;;;;;;6135289;23;20013;-91
2023/10/24 07:34:21;;;;;;;11.68;8.77;;;11.80;91.60;;;;;;6134573;23;20013;-91
2023/10/24 07:36:46;;;;;;;17.55;10.43;;;11.80;91.50;;;;;;6137579;23;20457;-90
2023/10/24 07:39:14;;;;;;;14.30;10.07;;;11.90;91.50;;;;;;6139583;23;20417;-91
2023/10/24 07:41:40;;;;;;;12.35;9.18;;;11.90;91.50;;;;;;6135809;23;20024;-90
2023/10/24 07:44:06;;;;;;;14.15;10.20;;;11.90;91.50;;;;;;6134742;23;20009;-91
2023/10/24 07:46:32;;;;;;;13.55;10.23;;;11.80;91.50;;;;;;6134721;23;20059;-91
2023/10/24 07:48:58;;;;;;;12.88;9.77;;;11.90;91.50;;;;;;6133785;23;20016;-91
2023/10/24 07:51:31;;;;;;;12.45;10.15;;;11.90;91.50;;;;;;6134015;23;20449;-91
2023/10/24 07:53:57;;;;;;;13.00;10.18;;;11.90;91.40;;;;;;6159267;23;20012;-91
2023/10/24 07:56:22;;;;;;;12.35;9.82;;;11.90;91.40;;;;;;6134044;23;20017;-91
2023/10/24 07:58:48;;;;;;;13.25;9.85;;;11.90;91.40;;;;;;6134409;23;20009;-91
2023/10/24 08:01:14;;;;;;;13.27;9.95;;;11.80;91.40;;;;;;6135072;23;20009;-91
2023/10/24 08:03:39;;;;;;;13.50;9.95;;;11.90;91.40;;;;;;6134299;23;20021;-91
2023/10/24 08:06:05;;;;;;;13.18;10.60;;;11.90;91.30;;;;;;6135006;23;20483;-91
2023/10/24 08:08:31;;;;;;;13.60;10.80;;;11.90;91.30;;;;;;6134963;23;20021;-91
2023/10/24 08:10:57;;;;;;;14.02;11.02;;;11.90;91.30;;;;;;6136617;23;20059;-90
2023/10/24 08:13:22;;;;;;;15.45;10.85;;;11.90;91.30;;;;;;6152572;23;20020;-91
2023/10/24 08:15:51;;;;;;;13.30;10.90;;;11.90;91.30;;;;;;6152249;23;20036;-90
2023/10/24 08:18:17;;;;;;;14.73;11.13;;;11.90;91.50;;;;;;6141930;23;20037;-91
2023/10/24 08:20:43;;;;;;;14.38;10.98;;;11.90;91.30;;;;;;6134127;23;20009;-91
2023/10/24 08:23:09;;;;;;;12.65;10.38;;;11.90;91.30;;;;;;6134451;23;20016;-91
2023/10/24 08:25:35;;;;;;;15.80;11.18;;;11.90;91.30;;;;;;6133999;23;20431;-91
2023/10/24 08:28:00;;;;;;;13.80;10.38;;;11.90;91.30;;;;;;6134045;23;20445;-91
2023/10/24 08:30:27;;;;;;;14.02;11.23;;;11.90;91.20;;;;;;6134134;23;20005;-91
2023/10/24 08:32:52;;;;;;;13.23;11.35;;;11.90;91.20;;;;;;6133582;23;20136;-91
2023/10/24 08:35:18;;;;;;;13.80;11.30;;;11.90;91.20;;;;;;6133998;23;20016;-91
2023/10/24 08:37:44;;;;;;;14.95;12.27;;;11.90;91.20;;;;;;6133543;23;20096;-91
2023/10/24 08:40:10;;;;;;;14.02;10.20;;;11.90;91.20;;;;;;6135652;23;20095;-92
2023/10/24 08:42:36;;;;;;;15.57;11.63;;;11.90;91.20;;;;;;6134340;23;20071;-91
2023/10/24 08:45:03;;;;;;;16.15;12.38;;;11.90;91.20;;;;;;6133604;23;20439;-91
2023/10/24 08:47:31;;;;;;;15.77;11.52;;;11.90;91.20;;;;;;6133193;23;20043;-91
2023/10/24 08:49:59;;;;;;;15.25;12.25;;;11.90;91.20;;;;;;6133417;23;20044;-89
2023/10/24 08:52:25;;;;;;;16.33;12.85;;;11.80;91.10;;;;;;6132855;23;20017;-91
2023/10/24 08:54:51;;;;;;;14.27;11.80;;;11.80;91.20;;;;;;6133177;23;20020;-91
2023/10/24 08:57:20;;;;;;;14.75;11.68;;;12.10;91.30;;;;;;6133162;23;20019;-91
2023/10/24 08:59:46;;;;;;;15.45;11.55;;;12.30;91.30;;;;;;6133024;23;20017;-89
2023/10/24 09:02:12;;;;;;;16.83;12.68;;;11.80;91.20;;;;;;6133185;23;20013;-91
2023/10/24 09:04:39;;;;;;;16.25;12.65;;;11.80;91.30;;;;;;6133327;23;20038;-91
2023/10/24 09:07:05;;;;;;;14.45;11.65;;;11.80;91.30;;;;;;6133097;23;20016;-91
2023/10/24 09:09:30;;;;;;;15.38;12.38;;;11.90;91.30;;;;;;6133045;23;20009;-91
2023/10/24 09:11:59;;;;;;;14.13;11.65;;;11.80;91.30;;;;;;6133341;23;20013;-91
2023/10/24 09:14:26;;;;;;;15.80;12.00;;;11.80;91.30;;;;;;6132993;23;20017;-91
2023/10/24 09:16:58;;;;;;;14.57;11.05;;;11.80;91.30;;;;;;6132821;23;20338;-90
2023/10/24 09:19:26;;;;;;;14.05;11.43;;;11.90;91.40;;;;;;6133985;23;20013;-92
2023/10/24 09:21:52;;;;;;;15.63;11.75;;;11.90;91.30;;;;;;6133812;23;20044;-91
2023/10/24 09:24:19;;;;;;;16.85;12.60;;;11.90;91.30;;;;;;6134192;23;20009;-91
2023/10/24 09:26:55;;;;;;;13.88;11.25;;;11.90;91.30;;;;;;6134023;23;20009;-91
2023/10/24 09:29:24;;;;;;;16.23;12.43;;;11.90;91.30;;;;;;6133768;23;20009;-91
2023/10/24 09:31:51;;;;;;;14.55;11.25;;;11.90;91.20;;;;;;6135604;23;20048;-91
2023/10/24 09:34:17;;;;;;;17.45;12.07;;;11.90;91.20;;;;;;6134237;23;20048;-91
2023/10/24 09:36:44;;;;;;;13.52;11.48;;;11.90;91.20;;;;;;6136731;23;20049;-91
2023/10/24 09:39:11;;;;;;;13.48;11.23;;;11.90;91.20;;;;;;6141136;23;20020;-91
2023/10/24 09:41:41;;;;;;;15.55;10.77;;;11.80;91.10;;;;;;6140616;23;20067;-92
2023/10/24 09:44:08;;;;;;;14.00;11.20;;;12.00;91.10;;;;;;6153967;23;20024;-92
2023/10/24 09:46:35;;;;;;;13.93;10.43;;;12.00;91.00;;;;;;6155307;23;20370;-92
2023/10/24 09:49:06;;;;;;;13.40;10.65;;;12.00;91.10;;;;;;6154456;23;20060;-92
2023/10/24 09:51:33;;;;;;;12.77;10.02;;;12.00;91.10;;;;;;6138533;23;20025;-92
2023/10/24 09:53:59;;;;;;;14.02;10.13;;;12.00;91.00;;;;;;6136060;23;20017;-91
2023/10/24 09:56:27;;;;;;;13.93;10.40;;;12.00;90.90;;;;;;6135619;23;20151;-91
2023/10/24 09:58:54;;;;;;;12.32;10.25;;;12.00;90.90;;;;;;6135344;23;20127;-92
2023/10/24 10:01:21;;;;;;;12.52;9.90;;;12.00;90.90;;;;;;6135418;23;20020;-91
2023/10/24 10:03:49;;;;;;;11.55;10.18;;;12.00;90.90;;;;;;6135407;23;20009;-92
2023/10/24 10:06:17;;;;;;;11.30;9.93;;;12.00;90.90;;;;;;6136036;23;20020;-92
2023/10/24 10:08:42;;;;;;;15.55;11.55;;;12.00;90.90;;;;;;6135650;23;20017;-92
2023/10/24 10:11:08;;;;;;;14.85;10.57;;;12.00;90.90;;;;;;6135206;23;20339;-92
2023/10/24 10:13:38;;;;;;;13.52;9.70;;;12.00;90.80;;;;;;6135546;23;20013;-92
2023/10/24 10:16:38;;;;;;;12.60;10.95;;;12.00;90.90;;;;;;6135584;23;20020;-93
2023/10/24 10:19:06;;;;;;;13.43;11.35;;;12.00;90.90;;;;;;6135914;23;20005;-93
2023/10/24 10:22:01;;;;;;;15.82;12.85;;;12.10;91.00;;;;;;6136490;23;20494;-93
2023/10/24 10:25:08;;;;;;;15.52;11.02;;;12.10;90.90;;;;;;6135833;23;20017;-93
2023/10/24 10:27:51;;;;;;;14.68;11.80;;;12.20;90.90;;;;;;6135491;23;20019;-93
2023/10/24 10:30:29;;;;;;;14.75;11.93;;;12.10;90.90;;;;;;6135948;23;20012;-92
2023/10/24 10:33:13;;;;;;;14.82;12.18;;;12.20;90.90;;;;;;6135330;23;20013;-93
2023/10/24 10:36:02;;;;;;;12.93;10.30;;;12.20;90.90;;;;;;6136785;23;20470;-90
2023/10/24 10:38:48;;;;;;;14.50;11.98;;;12.20;90.90;;;;;;6137657;23;20013;-93
2023/10/24 10:41:23;;;;;;;13.10;11.52;;;12.40;91.00;;;;;;6135734;23;20013;-93
2023/10/24 10:43:57;;;;;;;14.07;12.30;;;12.40;91.00;;;;;;6137638;23;20044;-91
2023/10/24 10:46:27;;;;;;;16.38;12.48;;;12.30;91.00;;;;;;6140169;23;20020;-92
2023/10/24 10:48:57;;;;;;;13.68;12.27;;;12.50;91.00;;;;;;6135777;23;20135;-93
2023/10/24 10:51:28;;;;;;;13.13;11.50;;;12.40;90.90;;;;;;6135523;23;20020;-93
2023/10/24 10:54:14;;;;;;;13.40;11.35;;;12.50;91.00;;;;;;6135083;23;20100;-93
2023/10/24 10:56:41;;;;;;;13.38;11.98;;;12.50;91.00;;;;;;6134930;23;20021;-93
2023/10/24 10:59:07;;;;;;;14.30;11.48;;;12.50;90.90;;;;;;6135401;23;20013;-91
2023/10/24 11:01:50;;;;;;;12.52;11.23;;;12.50;90.80;;;;;;6135233;23;20375;-93
2023/10/24 11:04:16;;;;;;;13.07;11.07;;;12.60;90.80;;;;;;6135131;23;20442;-93
2023/10/24 11:06:52;;;;;;;12.88;11.52;;;12.60;90.80;;;;;;6135126;23;20013;-93
2023/10/24 11:09:26;;;;;;;12.40;10.73;;;12.60;90.80;;;;;;6135303;23;20028;-93
2023/10/24 11:12:28;;;;;;;12.88;11.18;;;13.00;90.80;;;;;;6135200;23;20028;-94
2023/10/24 11:15:16;;;;;;;14.32;11.60;;;12.70;90.60;;;;;;6136451;23;20108;-93
2023/10/24 11:17:43;;;;;;;12.30;11.00;;;12.70;90.60;;;;;;6159750;23;20012;-93
2023/10/24 11:20:10;;;;;;;12.32;10.75;;;12.90;90.70;;;;;;6134774;23;20052;-91
2023/10/24 11:22:36;;;;;;;12.18;10.93;;;12.80;90.60;;;;;;6135103;23;20013;-93
2023/10/24 11:25:16;;;;;;;13.23;10.23;;;12.90;90.60;;;;;;6136294;23;20024;-93
2023/10/24 11:27:41;;;;;;;12.48;10.60;;;12.90;90.50;;;;;;6161128;23;20108;-93
2023/10/24 11:30:08;;;;;;;11.90;9.98;;;13.00;90.50;;;;;;6136498;23;20009;-93
2023/10/24 11:32:34;;;;;;;10.82;9.70;;;13.00;90.40;;;;;;6136578;23;20028;-93
2023/10/24 11:35:02;;;;;;;12.95;10.20;;;13.10;90.30;;;;;;6137311;23;20013;-90
2023/10/24 11:37:28;;;;;;;10.50;9.18;;;13.10;90.30;;;;;;6138023;23;20346;-91
2023/10/24 11:39:53;;;;;;;10.07;9.05;;;13.10;90.10;;;;;;6152307;23;20017;-89
2023/10/24 11:42:19;;;;;;;10.35;8.80;;;13.20;90.10;;;;;;6146795;23;20048;-92
2023/10/24 11:44:45;;;;;;;11.27;9.13;;;13.20;90.00;;;;;;6138439;23;20061;-92
2023/10/24 11:47:14;;;;;;;8.65;7.75;;;13.20;90.00;;;;;;6137756;23;20009;-92
2023/10/24 11:49:40;;;;;;;10.77;8.55;;;13.30;89.80;;;;;;6137339;23;20020;-92
2023/10/24 11:52:06;;;;;;;9.82;8.02;;;13.40;89.70;;;;;;6137241;23;20017;-92
2023/10/24 11:54:32;;;;;;;9.38;8.13;;;13.90;89.70;;;;;;6137553;23;20087;-91
2023/10/24 11:57:00;;;;;;;10.57;7.90;;;13.30;89.20;;;;;;6137485;23;20045;-92
2023/10/24 11:59:36;;;;;;;9.18;7.43;;;13.60;89.10;;;;;;6138453;23;20081;-92
2023/10/24 12:02:03;;;;;;;9.32;8.32;;;13.40;88.70;;;;;;6141400;23;20013;-91
2023/10/24 12:04:30;;;;;;;8.73;7.20;;;13.90;89.00;;;;;;6151189;23;19997;-93
2023/10/24 12:07:09;;;;;;;8.48;7.63;;;13.40;88.50;;;;;;6157066;23;20044;-92
2023/10/24 12:09:35;;;;;;;17.33;8.93;;;13.40;88.00;;;;;;6153749;23;20009;-93
2023/10/24 12:12:05;;;;;;;9.30;7.53;;;13.40;88.10;;;;;;6147799;23;20025;-93
2023/10/24 12:14:31;;;;;;;10.95;8.80;;;13.40;88.00;;;;;;6150305;23;20060;-93
2023/10/24 12:16:58;;;;;;;8.38;7.38;;;13.40;88.00;;;;;;6157135;23;20013;-94
2023/10/24 12:19:24;;;;;;;8.77;7.15;;;13.40;87.80;;;;;;6159372;23;20031;-91
2023/10/24 12:21:49;;;;;;;10.10;7.45;;;13.50;87.90;;;;;;6157764;23;20017;-90
2023/10/24 12:24:15;;;;;;;9.52;6.90;;;13.40;87.80;;;;;;6147033;23;20518;-93
2023/10/24 12:26:41;;;;;;;7.88;7.07;;;13.40;87.70;;;;;;6139219;23;20012;-93
2023/10/24 12:29:10;;;;;;;12.32;7.00;;;13.50;87.70;;;;;;6137902;23;20049;-93
2023/10/24 12:31:40;;;;;;;7.85;6.60;;;13.50;87.50;;;;;;6141046;23;20055;-92